createdAt,value
2023-03-28T00:08:18.876Z,5.43
2023-03-28T00:13:23.463Z,4.43
2023-03-28T00:18:27.390Z,4.28
2023-03-28T00:23:34.171Z,5.97
2023-03-28T00:28:38.354Z,6.18
2023-03-28T00:33:42.746Z,5.63
2023-03-28T00:38:49.255Z,4.38
2023-03-28T00:43:55.514Z,5.88
2023-03-28T00:49:01.529Z,3.97
2023-03-28T00:54:13.414Z,5.53
2023-03-28T00:59:18.956Z,3.28
2023-03-28T01:04:24.918Z,3.15
2023-03-28T01:09:28.566Z,2.72
2023-03-28T01:14:31.819Z,2.78
2023-03-28T01:20:08.239Z,3.55
2023-03-28T01:25:22.656Z,2.05
2023-03-28T01:30:30.361Z,1.83
2023-03-28T01:36:33.772Z,1.00
2023-03-28T01:42:04.886Z,3.53
2023-03-28T01:47:20.197Z,1.40
2023-03-28T01:52:51.457Z,1.75
2023-03-28T01:58:04.518Z,1.67
2023-03-28T02:03:25.473Z,1.17
2023-03-28T02:08:35.180Z,1.13
2023-03-28T02:13:58.565Z,3.75
2023-03-28T02:19:25.309Z,3.38
2023-03-28T02:25:03.364Z,4.22
2023-03-28T02:30:24.225Z,2.00
2023-03-28T02:35:34.288Z,2.25
2023-03-28T02:40:57.261Z,2.08
2023-03-28T02:46:27.926Z,3.05
2023-03-28T02:51:41.984Z,1.73
2023-03-28T02:56:57.325Z,3.17
2023-03-28T03:02:17.260Z,3.10
2023-03-28T03:07:20.589Z,2.40
2023-03-28T03:12:24.361Z,2.72
2023-03-28T03:17:32.401Z,3.35
2023-03-28T03:22:36.696Z,4.53
2023-03-28T03:32:46.478Z,2.10
2023-03-28T03:37:49.332Z,2.72
2023-03-28T03:42:52.257Z,3.15
2023-03-28T03:47:57.746Z,3.38
2023-03-28T03:53:01.336Z,2.53
2023-03-28T03:58:12.377Z,3.05
2023-03-28T04:03:24.308Z,2.85
2023-03-28T04:08:29.433Z,3.65
2023-03-28T04:13:32.388Z,5.03
2023-03-28T04:18:41.690Z,4.15
2023-03-28T04:23:44.597Z,3.22
2023-03-28T04:29:10.747Z,4.22
2023-03-28T04:34:16.046Z,3.50
2023-03-28T04:39:36.044Z,3.72
2023-03-28T04:45:09.017Z,4.68
2023-03-28T04:50:13.543Z,4.40
2023-03-28T04:55:17.705Z,5.45
2023-03-28T05:00:23.443Z,5.18
2023-03-28T05:05:37.851Z,5.57
2023-03-28T05:10:45.890Z,6.68
2023-03-28T05:15:52.912Z,5.00
2023-03-28T05:21:17.634Z,4.25
2023-03-28T05:26:20.518Z,4.40
2023-03-28T05:31:27.682Z,5.03
2023-03-28T05:36:46.918Z,4.90
2023-03-28T05:42:02.402Z,3.17
2023-03-28T05:47:05.430Z,17.37
2023-03-28T05:52:11.557Z,11.20
2023-03-28T05:57:17.616Z,8.05
2023-03-28T06:02:22.019Z,12.00
2023-03-28T06:07:35.218Z,16.30
2023-03-28T06:12:49.511Z,12.55
2023-03-28T06:17:52.852Z,13.32
2023-03-28T06:22:58.800Z,18.03
2023-03-28T06:28:01.701Z,12.73
2023-03-28T06:33:07.174Z,15.38
2023-03-28T06:43:14.955Z,28.15
2023-03-28T06:48:22.562Z,10.63
2023-03-28T06:53:54.254Z,11.35
2023-03-28T06:59:01.019Z,13.63
2023-03-28T07:04:07.548Z,16.27
2023-03-28T07:09:12.241Z,13.32
2023-03-28T07:14:22.803Z,17.35
2023-03-28T07:19:28.517Z,6.38
2023-03-28T07:24:32.031Z,12.30
2023-03-28T07:29:41.590Z,8.88
2023-03-28T07:34:45.375Z,6.87
2023-03-28T07:39:57.425Z,6.05
2023-03-28T07:45:02.227Z,17.52
2023-03-28T07:50:06.604Z,12.20
2023-03-28T07:55:12.223Z,7.20
2023-03-28T08:00:18.701Z,4.03
2023-03-28T08:05:49.967Z,7.45
2023-03-28T08:10:52.717Z,5.57
2023-03-28T08:15:58.858Z,4.13
2023-03-28T08:21:03.998Z,8.27
2023-03-28T08:26:13.046Z,11.95
2023-03-28T08:31:23.823Z,8.13
2023-03-28T08:36:29.445Z,6.38
2023-03-28T08:41:59.092Z,8.98
2023-03-28T08:47:29.081Z,19.20
2023-03-28T08:52:32.097Z,18.48
2023-03-28T08:57:36.703Z,17.30
2023-03-28T09:02:39.436Z,6.47
2023-03-28T09:08:00.567Z,4.05
2023-03-28T09:13:08.793Z,8.38
2023-03-28T09:18:57.748Z,10.15
2023-03-28T09:24:10.661Z,5.40
2023-03-28T09:29:36.956Z,4.03
2023-03-28T09:34:42.145Z,13.32
2023-03-28T09:39:49.881Z,13.75
2023-03-28T09:45:05.216Z,20.77
2023-03-28T09:50:40.142Z,85.70
2023-03-28T09:55:54.641Z,84.13
2023-03-28T10:01:24.446Z,7.40
2023-03-28T10:06:48.521Z,20.60
2023-03-28T10:11:55.059Z,10.15
2023-03-28T10:17:12.868Z,11.95
2023-03-28T10:22:25.998Z,12.10
2023-03-28T10:27:32.994Z,14.25
2023-03-28T10:32:36.942Z,16.73
2023-03-28T10:37:59.717Z,11.90
2023-03-28T10:48:57.922Z,11.20
2023-03-28T10:54:23.861Z,10.95
2023-03-28T10:59:38.479Z,13.93
2023-03-28T11:05:23.159Z,7.20
2023-03-28T11:11:00.664Z,13.70
2023-03-28T11:16:39.376Z,7.32
2023-03-28T11:22:01.001Z,6.30
2023-03-28T11:27:16.041Z,23.42
2023-03-28T11:33:10.795Z,8.05
2023-03-28T11:38:22.538Z,13.75
2023-03-28T11:43:35.400Z,22.35
2023-03-28T11:48:47.062Z,5.78
2023-03-28T11:53:58.812Z,6.13
2023-03-28T11:59:14.257Z,45.05
2023-03-28T12:04:29.924Z,8.23
2023-03-28T12:10:04.345Z,7.30
2023-03-28T12:15:15.584Z,8.88
2023-03-28T12:20:49.937Z,8.23
2023-03-28T12:26:18.507Z,5.65
2023-03-28T12:31:39.198Z,5.03
2023-03-28T12:37:04.375Z,7.32
2023-03-28T12:42:15.049Z,11.05
2023-03-28T12:47:25.016Z,7.10
2023-03-28T12:52:33.248Z,19.67
2023-03-28T12:57:41.626Z,39.05
2023-03-28T13:03:26.808Z,12.35
2023-03-28T13:08:44.799Z,18.55
2023-03-28T13:13:59.269Z,20.80
2023-03-28T13:19:06.858Z,17.77
2023-03-28T13:24:34.022Z,15.75
2023-03-28T13:29:51.257Z,20.40
2023-03-28T13:34:58.087Z,10.63
2023-03-28T13:40:01.461Z,5.35
2023-03-28T13:45:21.711Z,15.15
2023-03-28T13:50:27.022Z,11.43
2023-03-28T13:55:29.816Z,5.32
2023-03-28T14:00:32.801Z,6.33
2023-03-28T14:05:43.918Z,2.73
2023-03-28T14:10:47.180Z,7.20
2023-03-28T14:15:52.400Z,17.95
2023-03-28T14:20:58.146Z,8.35
2023-03-28T14:26:19.357Z,21.15
2023-03-28T14:31:34.130Z,7.55
2023-03-28T14:37:04.148Z,6.00
2023-03-28T14:42:10.695Z,15.15
2023-03-28T14:47:33.867Z,13.55
2023-03-28T14:52:41.485Z,7.20
2023-03-28T14:57:45.661Z,13.10
2023-03-28T15:02:48.985Z,50.40
2023-03-28T15:08:01.339Z,16.40
2023-03-28T15:13:18.350Z,8.30
2023-03-28T15:18:27.142Z,12.18
2023-03-28T15:23:36.610Z,11.95
2023-03-28T15:28:40.780Z,22.17
2023-03-28T15:33:46.415Z,21.60
2023-03-28T15:38:50.695Z,13.60
2023-03-28T15:44:00.456Z,23.13
2023-03-28T15:49:05.701Z,22.40
2023-03-28T15:54:14.598Z,34.90
2023-03-28T15:59:39.587Z,51.00
2023-03-28T16:05:06.476Z,9.77
2023-03-28T16:10:09.488Z,13.90
2023-03-28T16:15:32.141Z,26.40
2023-03-28T16:20:50.866Z,29.88
2023-03-28T16:25:53.661Z,16.27
2023-03-28T16:30:56.652Z,24.88
2023-03-28T16:35:59.624Z,25.80
2023-03-28T16:41:07.845Z,29.77
2023-03-28T16:46:12.415Z,19.73
2023-03-28T16:51:16.363Z,34.33
2023-03-28T16:56:19.401Z,47.83
2023-03-28T17:01:30.378Z,41.00
2023-03-28T17:06:33.205Z,219.60
2023-03-28T17:11:36.421Z,70.13
2023-03-28T17:16:42.253Z,53.10
2023-03-28T17:21:46.049Z,42.58
2023-03-28T17:31:53.031Z,39.10
2023-03-28T17:36:57.614Z,119.60
2023-03-28T17:42:00.300Z,95.55
2023-03-28T17:47:03.617Z,88.20
2023-03-28T17:52:10.573Z,63.85
2023-03-28T17:57:14.486Z,75.90
2023-03-28T18:02:20.513Z,108.07
2023-03-28T18:07:35.357Z,100.05
2023-03-28T18:12:41.890Z,71.15
2023-03-28T18:17:45.445Z,69.15
2023-03-28T18:22:48.042Z,59.47
2023-03-28T18:27:51.347Z,63.22
2023-03-28T18:32:54.519Z,64.88
2023-03-28T18:37:59.651Z,83.95
2023-03-28T18:43:02.682Z,108.47
2023-03-28T18:48:06.396Z,126.50
2023-03-28T18:53:09.498Z,222.75
2023-03-28T18:58:13.832Z,284.47
2023-03-28T19:03:18.870Z,280.95
2023-03-28T19:08:26.951Z,402.38
2023-03-28T19:13:29.847Z,324.98
2023-03-28T19:18:33.728Z,276.57
2023-03-28T19:23:39.689Z,307.48
2023-03-28T19:28:42.709Z,393.88
2023-03-28T19:33:46.042Z,261.77
2023-03-28T19:38:48.875Z,159.15
2023-03-28T19:43:52.059Z,112.40
2023-03-28T19:48:54.922Z,89.40
2023-03-28T19:53:57.394Z,93.20
2023-03-28T19:59:00.270Z,110.17
2023-03-28T20:04:03.069Z,78.30
2023-03-28T20:09:05.785Z,100.93
2023-03-28T20:14:09.516Z,90.50
2023-03-28T20:19:12.631Z,171.93
2023-03-28T20:24:18.372Z,140.23
2023-03-28T20:29:21.085Z,73.68
2023-03-28T20:34:23.826Z,66.30
2023-03-28T20:39:29.040Z,56.17
2023-03-28T20:44:38.580Z,56.20
2023-03-28T20:49:46.632Z,58.65
2023-03-28T20:54:50.498Z,67.47
2023-03-28T20:59:57.757Z,60.55
2023-03-28T21:05:00.330Z,73.97
2023-03-28T21:10:05.477Z,63.42
2023-03-28T21:20:11.537Z,93.50
2023-03-28T21:25:14.509Z,46.65
2023-03-28T21:30:17.306Z,56.03
2023-03-28T21:35:20.356Z,57.33
2023-03-28T21:40:23.339Z,62.53
2023-03-28T21:45:26.578Z,45.40
2023-03-28T21:50:31.811Z,69.70
2023-03-28T21:55:34.771Z,67.22
2023-03-28T22:00:37.726Z,60.85
2023-03-28T22:05:43.136Z,87.00
2023-03-28T22:10:48.698Z,115.28
2023-03-28T22:15:52.931Z,133.75
2023-03-28T22:20:55.834Z,122.35
2023-03-28T22:25:58.876Z,119.03
2023-03-28T22:31:01.770Z,105.95
2023-03-28T22:36:07.895Z,105.25
2023-03-28T22:41:11.373Z,108.50
2023-03-28T22:46:16.607Z,129.13
2023-03-28T22:51:19.290Z,122.40
2023-03-28T22:56:24.540Z,115.32
2023-03-28T23:01:29.169Z,107.72
2023-03-28T23:06:31.910Z,109.32
2023-03-28T23:11:37.594Z,94.93
2023-03-28T23:16:41.786Z,81.97
2023-03-28T23:21:44.429Z,78.97
2023-03-28T23:26:47.420Z,79.18
2023-03-28T23:31:50.682Z,88.68
2023-03-28T23:36:57.266Z,97.32
2023-03-28T23:41:59.957Z,97.22
2023-03-28T23:47:02.707Z,100.57
2023-03-28T23:52:05.678Z,109.05
2023-03-28T23:57:09.179Z,70.38
